Time;durP1;ratioP1;P1;durP2;ratioP2;P2;SDS_P1;SDS_P2;PMS_P1;PMS_P2;Temp;Humidity;BMP_temperature;BMP_pressure;BME280_temperature;BME280_humidity;BME280_pressure;Samples;Min_cycle;Max_cycle;Signal;HPM_P1;HPM_P2
2023/03/05 00:01:29;;;;;;;;;;;5.00;99.90;;;;;;4978695;28;20626;-66
2023/03/05 00:03:56;;;;;;;;;;;4.90;99.90;;;;;;4966658;28;19930;-67
2023/03/05 00:06:24;;;;;;;;;;;4.90;99.90;;;;;;4976005;28;19965;-66
2023/03/05 00:08:52;;;;;;;;;;;4.90;99.90;;;;;;4974704;28;19930;-67
2023/03/05 00:11:19;;;;;;;;;;;4.90;99.90;;;;;;4980668;28;19949;-66
2023/03/05 00:13:46;;;;;;;;;;;4.90;99.90;;;;;;4966277;28;19927;-67
2023/03/05 00:16:14;;;;;;;;;;;4.90;99.90;;;;;;4981709;28;20340;-66
2023/03/05 00:18:42;;;;;;;;;;;4.80;99.90;;;;;;4966360;28;19937;-66
2023/03/05 00:21:18;;;;;;;;;;;4.80;99.90;;;;;;4982812;28;20296;-67
2023/03/05 00:23:44;;;;;;;;;;;4.80;99.90;;;;;;4965118;28;19933;-66
2023/03/05 00:26:11;;;;;;;;;;;4.70;99.90;;;;;;4968554;28;20020;-66
2023/03/05 00:28:38;;;;;;;;;;;4.60;99.90;;;;;;4970533;28;20436;-66
2023/03/05 00:31:05;;;;;;;;;;;4.60;99.90;;;;;;4971650;28;20294;-65
2023/03/05 00:33:32;;;;;;;;;;;4.60;99.90;;;;;;4962584;28;20391;-67
2023/03/05 00:36:01;;;;;;;;;;;4.60;99.90;;;;;;4977271;28;20421;-66
2023/03/05 00:38:27;;;;;;;;;;;4.60;99.90;;;;;;4974774;28;19930;-67
2023/03/05 00:40:54;;;;;;;;;;;4.50;99.90;;;;;;4985473;28;20021;-67
2023/03/05 00:43:21;;;;;;;;;;;4.50;99.90;;;;;;4977792;28;19979;-67
2023/03/05 00:45:47;;;;;;;;;;;4.60;99.90;;;;;;4971871;28;20041;-66
2023/03/05 00:48:14;;;;;;;;;;;4.50;99.90;;;;;;4965624;28;19930;-66
2023/03/05 00:50:41;;;;;;;;;;;4.50;99.90;;;;;;4971692;28;19930;-66
2023/03/05 00:53:09;;;;;;;;;;;4.50;99.90;;;;;;4972087;28;19933;-67
2023/03/05 00:55:36;;;;;;;;;;;4.50;99.90;;;;;;4973752;28;19930;-67
2023/03/05 00:58:02;;;;;;;;;;;4.50;99.90;;;;;;4971263;28;20507;-66
2023/03/05 01:00:29;;;;;;;;;;;4.50;99.90;;;;;;4978109;28;19934;-66
2023/03/05 01:02:56;;;;;;;;;;;4.50;99.90;;;;;;4978317;28;19926;-67
2023/03/05 01:05:22;;;;;;;;;;;4.40;99.90;;;;;;4974950;28;20023;-66
2023/03/05 01:07:51;;;;;;;;;;;4.50;99.90;;;;;;4966767;28;19988;-67
2023/03/05 01:10:19;;;;;;;;;;;4.50;99.90;;;;;;4972900;28;19937;-68
2023/03/05 01:12:46;;;;;;;;;;;4.50;99.90;;;;;;4970373;28;19942;-67
2023/03/05 01:15:13;;;;;;;;;;;4.50;99.90;;;;;;4976592;28;19936;-67
2023/03/05 01:17:39;;;;;;;;;;;4.50;99.90;;;;;;4976077;28;19926;-68
2023/03/05 01:20:07;;;;;;;;;;;4.50;99.90;;;;;;4966057;28;19926;-67
2023/03/05 01:22:34;;;;;;;;;;;4.50;99.90;;;;;;4964381;28;19926;-67
2023/03/05 01:25:00;;;;;;;;;;;4.40;99.90;;;;;;4967501;28;19992;-67
2023/03/05 01:27:28;;;;;;;;;;;4.40;99.90;;;;;;4963747;28;20009;-68
2023/03/05 01:29:55;;;;;;;;;;;4.40;99.90;;;;;;4966410;28;20034;-67
2023/03/05 01:32:22;;;;;;;;;;;4.40;99.90;;;;;;4980198;28;20095;-66
2023/03/05 01:34:48;;;;;;;;;;;4.40;99.90;;;;;;4976556;28;19969;-67
2023/03/05 01:37:15;;;;;;;;;;;4.40;99.90;;;;;;4968729;28;19930;-67
2023/03/05 01:39:42;;;;;;;;;;;4.40;99.90;;;;;;4966403;28;19933;-67
2023/03/05 01:42:09;;;;;;;;;;;4.50;99.90;;;;;;4970631;28;19926;-66
2023/03/05 01:44:37;;;;;;;;;;;4.40;99.90;;;;;;4965606;28;19926;-67
2023/03/05 01:47:03;;;;;;;;;;;4.30;99.90;;;;;;4961443;28;19953;-67
2023/03/05 01:49:32;;;;;;;;;;;4.30;99.90;;;;;;4967843;28;19926;-68
2023/03/05 01:52:00;;;;;;;;;;;4.20;99.90;;;;;;4972634;28;19926;-67
2023/03/05 01:54:30;;;;;;;;;;;4.20;99.90;;;;;;4965268;28;20373;-67
2023/03/05 01:57:01;;;;;;;;;;;4.10;99.90;;;;;;4975907;28;19932;-67
2023/03/05 01:59:28;;;;;;;;;;;4.10;99.90;;;;;;4966785;28;19984;-67
2023/03/05 02:01:57;;;;;;;;;;;4.10;99.90;;;;;;4979401;28;19926;-67
2023/03/05 02:04:28;;;;;;;;;;;4.10;99.90;;;;;;4985448;28;20017;-66
2023/03/05 02:06:55;;;;;;;;;;;4.10;99.90;;;;;;4976697;28;20385;-66
2023/03/05 02:09:22;;;;;;;;;;;4.10;99.90;;;;;;4980228;28;19993;-67
2023/03/05 02:11:49;;;;;;;;;;;4.00;99.90;;;;;;4977916;28;19933;-66
2023/03/05 02:14:16;;;;;;;;;;;4.00;99.90;;;;;;5028193;28;19960;-67
2023/03/05 02:16:43;;;;;;;;;;;4.00;99.90;;;;;;4966513;28;19930;-67
2023/03/05 02:19:12;;;;;;;;;;;4.00;99.90;;;;;;4968589;28;19926;-67
2023/03/05 02:21:41;;;;;;;;;;;4.00;99.90;;;;;;4972943;28;19925;-67
2023/03/05 02:24:09;;;;;;;;;;;4.00;99.90;;;;;;4965053;28;20079;-67
2023/03/05 02:26:36;;;;;;;;;;;4.00;99.90;;;;;;4972559;28;20250;-70
2023/03/05 02:29:05;;;;;;;;;;;3.90;99.90;;;;;;4973949;28;20014;-66
2023/03/05 02:31:31;;;;;;;;;;;3.90;99.90;;;;;;4972027;28;20040;-67
2023/03/05 02:33:58;;;;;;;;;;;3.90;99.90;;;;;;4981537;28;19926;-67
2023/03/05 02:36:25;;;;;;;;;;;3.90;99.90;;;;;;4966355;28;19932;-67
2023/03/05 02:38:55;;;;;;;;;;;3.80;99.90;;;;;;4985434;28;19942;-67
2023/03/05 02:41:22;;;;;;;;;;;3.80;99.90;;;;;;4968981;28;20423;-67
2023/03/05 02:43:49;;;;;;;;;;;3.80;99.90;;;;;;4969133;28;20013;-68
2023/03/05 02:46:16;;;;;;;;;;;3.70;99.90;;;;;;4966439;28;19926;-67
2023/03/05 02:48:43;;;;;;;;;;;3.70;99.90;;;;;;4962319;28;19925;-67
2023/03/05 02:51:10;;;;;;;;;;;3.70;99.90;;;;;;4968249;28;19926;-67
2023/03/05 02:53:37;;;;;;;;;;;3.70;99.90;;;;;;4975971;28;20004;-67
2023/03/05 02:56:05;;;;;;;;;;;3.60;99.90;;;;;;4966687;28;20419;-67
2023/03/05 02:58:32;;;;;;;;;;;3.70;99.90;;;;;;4973067;28;19971;-66
2023/03/05 03:00:59;;;;;;;;;;;3.60;99.90;;;;;;4973096;28;20704;-67
2023/03/05 03:03:25;;;;;;;;;;;3.60;99.90;;;;;;4967213;28;19927;-67
2023/03/05 03:05:52;;;;;;;;;;;3.60;99.90;;;;;;4986738;28;20274;-66
2023/03/05 03:08:19;;;;;;;;;;;3.60;99.90;;;;;;4987038;28;19965;-67
2023/03/05 03:10:45;;;;;;;;;;;3.60;99.90;;;;;;4966944;28;20045;-67
2023/03/05 03:13:13;;;;;;;;;;;3.60;99.90;;;;;;4970180;28;20017;-68
2023/03/05 03:15:40;;;;;;;;;;;3.60;99.90;;;;;;4964547;28;19930;-67
2023/03/05 03:18:07;;;;;;;;;;;3.70;99.90;;;;;;4963926;28;19931;-67
2023/03/05 03:20:34;;;;;;;;;;;3.60;99.90;;;;;;4966673;28;19934;-67
2023/03/05 03:23:01;;;;;;;;;;;3.60;99.90;;;;;;4969195;28;19930;-68
2023/03/05 03:25:27;;;;;;;;;;;3.70;99.90;;;;;;4964947;28;20058;-67
2023/03/05 03:27:54;;;;;;;;;;;3.70;99.90;;;;;;4974459;28;19940;-67
2023/03/05 03:30:22;;;;;;;;;;;3.70;99.90;;;;;;4975381;28;19948;-67
2023/03/05 03:32:50;;;;;;;;;;;3.70;99.90;;;;;;4968078;28;20048;-67
2023/03/05 03:35:17;;;;;;;;;;;3.70;99.90;;;;;;4989478;28;19969;-66
2023/03/05 03:37:44;;;;;;;;;;;3.70;99.90;;;;;;4965921;28;20024;-68
2023/03/05 03:40:11;;;;;;;;;;;3.70;99.90;;;;;;4968899;28;20020;-68
2023/03/05 03:42:38;;;;;;;;;;;3.70;99.90;;;;;;4973452;28;20016;-68
2023/03/05 03:45:05;;;;;;;;;;;3.80;99.90;;;;;;4981228;28;20001;-66
2023/03/05 03:47:33;;;;;;;;;;;3.80;99.90;;;;;;4970307;28;19930;-67
2023/03/05 03:50:00;;;;;;;;;;;3.80;99.90;;;;;;4975900;28;20419;-67
2023/03/05 03:52:26;;;;;;;;;;;3.80;99.90;;;;;;4966531;28;19932;-66
2023/03/05 03:55:00;;;;;;;;;;;3.80;99.90;;;;;;4962749;28;20547;-66
2023/03/05 03:57:27;;;;;;;;;;;3.80;99.90;;;;;;4966834;28;20296;-67
2023/03/05 03:59:53;;;;;;;;;;;3.80;99.90;;;;;;4973867;28;20020;-67
2023/03/05 04:02:20;;;;;;;;;;;3.80;99.90;;;;;;4966852;28;19961;-67
2023/03/05 04:04:48;;;;;;;;;;;3.80;99.90;;;;;;4970998;28;19927;-67
2023/03/05 04:07:15;;;;;;;;;;;3.80;99.90;;;;;;4964506;28;19934;-66
2023/03/05 04:09:42;;;;;;;;;;;3.80;99.90;;;;;;4964219;28;20476;-68
2023/03/05 04:12:09;;;;;;;;;;;3.80;99.90;;;;;;4963567;28;19932;-67
2023/03/05 04:14:36;;;;;;;;;;;3.80;99.90;;;;;;4978313;28;19926;-67
2023/03/05 04:17:02;;;;;;;;;;;3.80;99.90;;;;;;4974582;28;19965;-66
2023/03/05 04:19:29;;;;;;;;;;;3.80;99.90;;;;;;4975186;28;20293;-67
2023/03/05 04:21:57;;;;;;;;;;;3.80;99.90;;;;;;4968831;28;19937;-66
2023/03/05 04:24:24;;;;;;;;;;;3.80;99.90;;;;;;4975113;28;19932;-67
2023/03/05 04:26:54;;;;;;;;;;;3.80;99.90;;;;;;4973208;28;19926;-66
2023/03/05 04:29:21;;;;;;;;;;;3.80;99.90;;;;;;4971695;28;19926;-67
2023/03/05 04:31:47;;;;;;;;;;;3.90;99.90;;;;;;4961698;28;20444;-67
2023/03/05 04:34:14;;;;;;;;;;;3.90;99.90;;;;;;4971420;28;19926;-67
2023/03/05 04:36:41;;;;;;;;;;;3.90;99.90;;;;;;4959283;28;19977;-67
2023/03/05 04:39:09;;;;;;;;;;;3.90;99.90;;;;;;4967487;28;20396;-68
2023/03/05 04:41:35;;;;;;;;;;;3.90;99.90;;;;;;4972331;28;20024;-67
2023/03/05 04:44:02;;;;;;;;;;;3.90;99.90;;;;;;4966907;28;19953;-67
2023/03/05 04:46:29;;;;;;;;;;;3.90;99.90;;;;;;4964425;28;20456;-67
2023/03/05 04:48:57;;;;;;;;;;;3.90;99.90;;;;;;4967455;28;19972;-67
2023/03/05 04:51:24;;;;;;;;;;;3.90;99.90;;;;;;4980933;28;19926;-66
2023/03/05 04:53:51;;;;;;;;;;;3.90;99.90;;;;;;4966815;28;19958;-67
2023/03/05 04:56:19;;;;;;;;;;;3.90;99.90;;;;;;4975008;28;19925;-66
2023/03/05 04:58:46;;;;;;;;;;;3.90;99.90;;;;;;4967208;28;20005;-67
2023/03/05 05:01:13;;;;;;;;;;;3.90;99.90;;;;;;4971557;28;19926;-67
2023/03/05 05:03:39;;;;;;;;;;;3.90;99.90;;;;;;4966102;28;20377;-67
2023/03/05 05:06:06;;;;;;;;;;;3.90;99.90;;;;;;4964152;28;19930;-66
2023/03/05 05:08:33;;;;;;;;;;;3.90;99.90;;;;;;4965369;28;19987;-66
2023/03/05 05:11:01;;;;;;;;;;;3.90;99.90;;;;;;4963846;28;19926;-66
2023/03/05 05:13:29;;;;;;;;;;;3.90;99.90;;;;;;4964337;28;19926;-66
2023/03/05 05:15:56;;;;;;;;;;;3.90;99.90;;;;;;4962381;28;19926;-66
2023/03/05 05:18:23;;;;;;;;;;;3.80;99.90;;;;;;4969818;28;20353;-68
2023/03/05 05:20:50;;;;;;;;;;;3.80;99.90;;;;;;4973863;28;20017;-67
2023/03/05 05:23:17;;;;;;;;;;;3.80;99.90;;;;;;4965941;28;19993;-67
2023/03/05 05:25:44;;;;;;;;;;;3.80;99.90;;;;;;4965070;28;19930;-68
2023/03/05 05:28:11;;;;;;;;;;;3.80;99.90;;;;;;4969639;28;20099;-67
2023/03/05 05:30:39;;;;;;;;;;;3.80;99.90;;;;;;4984781;28;20018;-66
2023/03/05 05:33:08;;;;;;;;;;;3.80;99.90;;;;;;4977187;28;19926;-67
2023/03/05 05:35:38;;;;;;;;;;;3.80;99.90;;;;;;4969969;28;19926;-66
2023/03/05 05:38:05;;;;;;;;;;;3.80;99.90;;;;;;4973960;28;19926;-66
2023/03/05 05:40:32;;;;;;;;;;;3.80;99.90;;;;;;4962760;28;19926;-67
2023/03/05 05:42:58;;;;;;;;;;;3.80;99.90;;;;;;4978070;28;19926;-67
2023/03/05 05:45:25;;;;;;;;;;;3.80;99.90;;;;;;4964387;28;19995;-66
2023/03/05 05:47:53;;;;;;;;;;;3.80;99.90;;;;;;4977335;28;19940;-66
2023/03/05 05:50:20;;;;;;;;;;;3.80;99.90;;;;;;4972844;28;19930;-66
2023/03/05 05:52:47;;;;;;;;;;;3.80;99.90;;;;;;4967711;28;19936;-68
2023/03/05 05:55:14;;;;;;;;;;;3.80;99.90;;;;;;4961244;28;20021;-67
2023/03/05 05:57:40;;;;;;;;;;;3.80;99.90;;;;;;4960814;28;19936;-67
2023/03/05 06:00:08;;;;;;;;;;;3.80;99.90;;;;;;4963740;28;19927;-66
2023/03/05 06:02:37;;;;;;;;;;;3.80;99.90;;;;;;4962321;28;19930;-67
2023/03/05 06:05:06;;;;;;;;;;;3.80;99.90;;;;;;4969373;28;20041;-66
2023/03/05 06:07:34;;;;;;;;;;;3.80;99.90;;;;;;4975909;28;20061;-66
2023/03/05 06:10:00;;;;;;;;;;;3.90;99.90;;;;;;4973089;28;19934;-67
2023/03/05 06:12:27;;;;;;;;;;;3.80;99.90;;;;;;4992121;28;19925;-67
2023/03/05 06:14:54;;;;;;;;;;;3.90;99.90;;;;;;4972394;28;20011;-65
2023/03/05 06:17:20;;;;;;;;;;;3.90;99.90;;;;;;4975436;28;19925;-65
2023/03/05 06:19:47;;;;;;;;;;;3.90;99.90;;;;;;4976847;28;19991;-67
2023/03/05 06:22:15;;;;;;;;;;;3.80;99.90;;;;;;5004228;28;19926;-66
2023/03/05 06:24:42;;;;;;;;;;;3.80;99.90;;;;;;4961551;28;19929;-66
2023/03/05 06:27:09;;;;;;;;;;;3.80;99.90;;;;;;4975375;28;19933;-66
2023/03/05 06:29:36;;;;;;;;;;;3.80;99.90;;;;;;4976505;28;20037;-68
2023/03/05 06:32:02;;;;;;;;;;;3.80;99.90;;;;;;4971943;28;19930;-66
2023/03/05 06:34:29;;;;;;;;;;;3.80;99.90;;;;;;4963453;28;19927;-67
2023/03/05 06:36:56;;;;;;;;;;;3.80;99.90;;;;;;4966732;28;19926;-67
2023/03/05 06:39:24;;;;;;;;;;;3.80;99.90;;;;;;4972264;28;20323;-67
2023/03/05 06:41:51;;;;;;;;;;;3.90;99.90;;;;;;4966806;28;19958;-67
2023/03/05 06:44:17;;;;;;;;;;;3.90;99.90;;;;;;4965499;28;19926;-67
2023/03/05 06:46:44;;;;;;;;;;;3.90;99.90;;;;;;4969031;28;19966;-66
2023/03/05 06:49:11;;;;;;;;;;;3.90;99.90;;;;;;4969395;28;19932;-67
2023/03/05 06:51:41;;;;;;;;;;;3.90;99.90;;;;;;4967629;28;19930;-67
2023/03/05 06:54:09;;;;;;;;;;;3.90;99.90;;;;;;4967156;28;20350;-67
2023/03/05 06:56:38;;;;;;;;;;;4.00;99.90;;;;;;4963554;28;19930;-67
2023/03/05 06:59:05;;;;;;;;;;;4.00;99.90;;;;;;4971450;28;20442;-67
2023/03/05 07:01:32;;;;;;;;;;;4.00;99.90;;;;;;4963682;28;19941;-68
2023/03/05 07:03:59;;;;;;;;;;;4.00;99.90;;;;;;4966300;28;20377;-68
2023/03/05 07:06:26;;;;;;;;;;;4.10;99.90;;;;;;4962523;28;19930;-68
2023/03/05 07:08:54;;;;;;;;;;;4.10;99.90;;;;;;4968780;28;19926;-68
2023/03/05 07:11:21;;;;;;;;;;;4.10;99.90;;;;;;4969680;28;20392;-66
2023/03/05 07:13:49;;;;;;;;;;;4.10;99.90;;;;;;4965945;28;20026;-66
2023/03/05 07:16:17;;;;;;;;;;;4.10;99.90;;;;;;4963661;28;20256;-67
2023/03/05 07:18:44;;;;;;;;;;;4.10;99.90;;;;;;4974280;28;19961;-67
2023/03/05 07:21:14;;;;;;;;;;;4.20;99.90;;;;;;4969788;28;19934;-69
2023/03/05 07:23:41;;;;;;;;;;;4.20;99.90;;;;;;4965250;28;20385;-67
2023/03/05 07:26:08;;;;;;;;;;;4.30;99.90;;;;;;4969841;28;20061;-69
2023/03/05 07:28:34;;;;;;;;;;;4.50;99.90;;;;;;4970423;28;19932;-68
2023/03/05 07:31:04;;;;;;;;;;;4.70;99.90;;;;;;4976049;28;19929;-68
2023/03/05 07:33:32;;;;;;;;;;;5.00;99.90;;;;;;4986403;28;20031;-71
2023/03/05 07:36:00;;;;;;;;;;;5.10;99.90;;;;;;4980848;28;20048;-71
2023/03/05 07:38:26;;;;;;;;;;;5.20;99.90;;;;;;4980719;28;19992;-71
2023/03/05 07:40:53;;;;;;;;;;;5.30;99.90;;;;;;4967802;28;20022;-71
2023/03/05 07:43:20;;;;;;;;;;;5.30;99.90;;;;;;4985406;28;19930;-70
2023/03/05 07:45:47;;;;;;;;;;;5.40;99.90;;;;;;5009353;28;19929;-71
2023/03/05 07:48:16;;;;;;;;;;;5.40;99.90;;;;;;4969774;28;19932;-70
2023/03/05 07:50:42;;;;;;;;;;;5.40;99.90;;;;;;4989448;28;20291;-71
2023/03/05 07:53:10;;;;;;;;;;;5.50;99.90;;;;;;4995385;28;20023;-69
2023/03/05 07:55:41;;;;;;;;;;;5.50;99.90;;;;;;4966902;28;19930;-70
2023/03/05 07:58:08;;;;;;;;;;;5.50;99.90;;;;;;4961850;28;19926;-71
2023/03/05 08:00:37;;;;;;;;;;;5.60;99.90;;;;;;4971423;28;20381;-70
2023/03/05 08:03:04;;;;;;;;;;;5.60;99.90;;;;;;4982511;28;20024;-71
2023/03/05 08:05:32;;;;;;;;;;;5.50;99.90;;;;;;4977058;28;19936;-70
2023/03/05 08:07:59;;;;;;;;;;;5.50;99.90;;;;;;4975942;28;19930;-71
2023/03/05 08:10:26;;;;;;;;;;;5.50;99.90;;;;;;4984755;28;20380;-70
2023/03/05 08:12:52;;;;;;;;;;;5.40;99.90;;;;;;4971812;28;19934;-70
2023/03/05 08:15:19;;;;;;;;;;;5.30;99.90;;;;;;4967111;28;20009;-70
2023/03/05 08:17:46;;;;;;;;;;;5.20;99.90;;;;;;4963538;28;19969;-70
2023/03/05 08:20:13;;;;;;;;;;;5.20;99.90;;;;;;4993130;28;19932;-70
2023/03/05 08:22:41;;;;;;;;;;;5.10;99.90;;;;;;4976529;28;20352;-71
2023/03/05 08:25:08;;;;;;;;;;;5.00;99.90;;;;;;4964873;28;20013;-71
2023/03/05 08:27:39;;;;;;;;;;;4.90;99.90;;;;;;4979074;28;19931;-70
2023/03/05 08:30:07;;;;;;;;;;;4.80;99.90;;;;;;5002527;28;20017;-69
2023/03/05 08:32:34;;;;;;;;;;;4.90;99.90;;;;;;4972226;28;19934;-71
2023/03/05 08:35:02;;;;;;;;;;;5.00;99.90;;;;;;4968861;28;20292;-71
2023/03/05 08:37:29;;;;;;;;;;;5.10;99.90;;;;;;4979261;28;20354;-71
2023/03/05 08:39:57;;;;;;;;;;;5.10;99.90;;;;;;4973059;28;20455;-71
2023/03/05 08:42:24;;;;;;;;;;;5.00;99.90;;;;;;4973871;28;20374;-71
2023/03/05 08:44:51;;;;;;;;;;;4.60;99.90;;;;;;4975136;28;20023;-71
2023/03/05 08:47:20;;;;;;;;;;;4.50;99.90;;;;;;4957651;28;19936;-71
2023/03/05 08:49:47;;;;;;;;;;;4.40;99.90;;;;;;4960981;28;20032;-71
2023/03/05 08:52:13;;;;;;;;;;;4.30;99.90;;;;;;4968526;28;20348;-70
2023/03/05 08:54:43;;;;;;;;;;;4.30;99.90;;;;;;4965108;28;19931;-72
2023/03/05 08:57:11;;;;;;;;;;;4.30;99.90;;;;;;4965182;28;20021;-73
2023/03/05 08:59:38;;;;;;;;;;;4.40;99.90;;;;;;4957912;28;20389;-72
2023/03/05 09:02:04;;;;;;;;;;;4.60;99.90;;;;;;4964723;28;19930;-72
2023/03/05 09:04:31;;;;;;;;;;;4.80;99.90;;;;;;4964377;28;19926;-72
2023/03/05 09:06:58;;;;;;;;;;;5.00;99.90;;;;;;4957511;28;19940;-72
2023/03/05 09:09:25;;;;;;;;;;;5.00;99.90;;;;;;4962213;28;20453;-71
2023/03/05 09:11:52;;;;;;;;;;;5.00;99.90;;;;;;4965852;28;19983;-71
2023/03/05 09:14:20;;;;;;;;;;;5.10;99.90;;;;;;4968279;28;19930;-71
2023/03/05 09:16:50;;;;;;;;;;;5.10;99.90;;;;;;4965034;28;20377;-71
2023/03/05 09:19:17;;;;;;;;;;;5.10;99.90;;;;;;4978994;28;19979;-71
2023/03/05 09:21:44;;;;;;;;;;;5.10;99.90;;;;;;4965172;28;20079;-71
2023/03/05 09:24:11;;;;;;;;;;;5.30;99.90;;;;;;4963758;28;19961;-71
2023/03/05 09:26:37;;;;;;;;;;;5.40;99.90;;;;;;4971940;28;19926;-71
2023/03/05 09:29:06;;;;;;;;;;;5.40;99.90;;;;;;4966682;28;19926;-71
2023/03/05 09:31:34;;;;;;;;;;;5.30;99.90;;;;;;5004198;28;19960;-71
2023/03/05 09:34:01;;;;;;;;;;;5.30;99.90;;;;;;4970791;28;19927;-70
2023/03/05 09:36:28;;;;;;;;;;;5.40;99.90;;;;;;4967877;28;19972;-70
2023/03/05 09:38:55;;;;;;;;;;;5.40;99.90;;;;;;4962148;28;20449;-71
2023/03/05 09:41:26;;;;;;;;;;;5.40;99.90;;;;;;4963975;28;20709;-71
2023/03/05 09:43:56;;;;;;;;;;;5.30;99.90;;;;;;4968947;28;20017;-71
2023/03/05 09:46:29;;;;;;;;;;;5.40;99.90;;;;;;4972436;28;19932;-71
2023/03/05 09:49:00;;;;;;;;;;;5.50;99.90;;;;;;4977349;28;20005;-71
2023/03/05 09:51:29;;;;;;;;;;;5.60;99.90;;;;;;4960734;28;20312;-68
2023/03/05 09:54:00;;;;;;;;;;;5.80;99.90;;;;;;4962561;28;19956;-67
2023/03/05 09:56:29;;;;;;;;;;;5.90;99.90;;;;;;4966112;28;19926;-68
2023/03/05 09:58:58;;;;;;;;;;;5.90;99.90;;;;;;4973480;28;20017;-67
2023/03/05 10:01:30;;;;;;;;;;;5.80;99.90;;;;;;4974666;28;19940;-67
2023/03/05 10:04:01;;;;;;;;;;;5.90;99.90;;;;;;4968378;28;20381;-67
2023/03/05 10:06:29;;;;;;;;;;;6.00;99.90;;;;;;4972983;28;19926;-67
2023/03/05 10:08:57;;;;;;;;;;;6.10;99.90;;;;;;4966417;28;19930;-67
2023/03/05 10:11:39;;;;;;;;;;;6.30;99.90;;;;;;4978716;28;20022;-67
2023/03/05 10:14:07;;;;;;;;;;;6.30;99.90;;;;;;4966962;28;20020;-66
2023/03/05 10:16:54;;;;;;;;;;;6.30;99.90;;;;;;4961745;28;19949;-68
2023/03/05 10:19:27;;;;;;;;;;;6.50;99.90;;;;;;4972722;28;19991;-67
2023/03/05 10:22:03;;;;;;;;;;;6.80;99.90;;;;;;4966754;28;20019;-68
2023/03/05 10:24:35;;;;;;;;;;;7.00;99.90;;;;;;4962249;28;19960;-67
2023/03/05 10:27:05;;;;;;;;;;;6.90;99.90;;;;;;4968369;28;20017;-68
2023/03/05 10:29:49;;;;;;;;;;;6.90;99.90;;;;;;4983942;28;20345;-67
2023/03/05 10:32:23;;;;;;;;;;;6.90;99.90;;;;;;4962910;28;20377;-68
2023/03/05 10:35:13;;;;;;;;;;;7.00;99.90;;;;;;4967757;28;20409;-67
2023/03/05 10:37:56;;;;;;;;;;;7.20;99.90;;;;;;4963141;28;20351;-67
2023/03/05 10:40:26;;;;;;;;;;;7.30;99.90;;;;;;4956676;28;21308;-68
2023/03/05 10:42:57;;;;;;;;;;;7.20;99.90;;;;;;4958325;28;20021;-68
2023/03/05 10:45:26;;;;;;;;;;;7.20;99.90;;;;;;4951779;28;19926;-68
2023/03/05 10:47:55;;;;;;;;;;;7.40;99.90;;;;;;4959229;28;19935;-68
2023/03/05 10:50:25;;;;;;;;;;;7.30;99.90;;;;;;4956664;28;20296;-67
2023/03/05 10:52:56;;;;;;;;;;;7.30;99.90;;;;;;4950793;28;20064;-68
2023/03/05 10:55:23;;;;;;;;;;;7.40;99.90;;;;;;4955665;28;19937;-67
2023/03/05 10:57:50;;;;;;;;;;;7.50;99.90;;;;;;4965543;28;19930;-67
2023/03/05 11:00:19;;;;;;;;;;;7.70;99.90;;;;;;4962197;28;19938;-68
2023/03/05 11:02:53;;;;;;;;;;;7.70;99.90;;;;;;4956135;28;19934;-68
2023/03/05 11:05:34;;;;;;;;;;;7.90;99.90;;;;;;4963123;28;20068;-67
2023/03/05 11:08:17;;;;;;;;;;;8.00;99.90;;;;;;4971901;28;20008;-66
2023/03/05 11:10:44;;;;;;;;;;;8.00;99.90;;;;;;4962096;28;19969;-69
2023/03/05 11:13:23;;;;;;;;;;;8.20;99.90;;;;;;4960646;28;19930;-67
2023/03/05 11:15:58;;;;;;;;;;;8.40;99.90;;;;;;4964951;28;20063;-68
2023/03/05 11:18:25;;;;;;;;;;;8.40;99.90;;;;;;4957945;28;19934;-69
2023/03/05 11:20:52;;;;;;;;;;;8.20;99.90;;;;;;4954866;28;19926;-65
2023/03/05 11:23:22;;;;;;;;;;;7.90;99.90;;;;;;4962555;28;19935;-69
2023/03/05 11:25:52;;;;;;;;;;;7.80;99.90;;;;;;4960772;28;19926;-67
2023/03/05 11:28:19;;;;;;;;;;;7.60;99.90;;;;;;4960134;28;20453;-68
2023/03/05 11:30:55;;;;;;;;;;;7.90;99.90;;;;;;4961804;28;19927;-68
2023/03/05 11:33:23;;;;;;;;;;;8.00;99.90;;;;;;4963802;28;19940;-68
2023/03/05 11:35:50;;;;;;;;;;;7.90;99.90;;;;;;4960779;28;19933;-68
2023/03/05 11:38:23;;;;;;;;;;;7.80;99.90;;;;;;4957226;28;19930;-68
2023/03/05 11:40:52;;;;;;;;;;;7.70;99.90;;;;;;4958484;28;19930;-67
2023/03/05 11:43:25;;;;;;;;;;;7.50;99.90;;;;;;4948551;28;20019;-67
2023/03/05 11:45:53;;;;;;;;;;;7.50;99.90;;;;;;4974449;28;20024;-69
2023/03/05 11:48:21;;;;;;;;;;;7.30;99.90;;;;;;4958663;28;20019;-68
2023/03/05 11:50:49;;;;;;;;;;;7.20;99.90;;;;;;4955827;28;20604;-67
2023/03/05 11:53:18;;;;;;;;;;;7.30;99.90;;;;;;4958059;28;20021;-68
2023/03/05 11:55:46;;;;;;;;;;;7.40;99.90;;;;;;4952905;28;20402;-69
2023/03/05 11:58:22;;;;;;;;;;;7.40;99.90;;;;;;4961283;28;20404;-68
2023/03/05 12:00:49;;;;;;;;;;;7.10;99.90;;;;;;4973040;28;20043;-69
2023/03/05 12:03:17;;;;;;;;;;;6.80;99.90;;;;;;4970157;28;20314;-68
2023/03/05 12:05:45;;;;;;;;;;;6.60;99.90;;;;;;4965128;28;20114;-67
2023/03/05 12:08:15;;;;;;;;;;;6.60;99.90;;;;;;4963356;28;20478;-67
2023/03/05 12:10:41;;;;;;;;;;;6.60;99.90;;;;;;4962739;28;19944;-68
2023/03/05 12:13:13;;;;;;;;;;;6.80;99.90;;;;;;4964124;28;20370;-68
2023/03/05 12:15:46;;;;;;;;;;;6.90;99.90;;;;;;4963178;28;19935;-66
2023/03/05 12:18:20;;;;;;;;;;;6.90;99.90;;;;;;4958722;28;20025;-67
2023/03/05 12:20:49;;;;;;;;;;;7.00;99.90;;;;;;4965919;28;19929;-67
2023/03/05 12:23:17;;;;;;;;;;;7.10;99.90;;;;;;4958500;28;19932;-67
2023/03/05 12:25:46;;;;;;;;;;;7.10;99.90;;;;;;4962720;28;19989;-67
2023/03/05 12:28:14;;;;;;;;;;;7.10;99.90;;;;;;4961758;28;19946;-67
2023/03/05 12:30:56;;;;;;;;;;;7.20;99.90;;;;;;4957907;28;20629;-68
2023/03/05 12:33:30;;;;;;;;;;;7.30;99.90;;;;;;4961113;28;19930;-68
2023/03/05 12:36:11;;;;;;;;;;;7.40;99.90;;;;;;4963474;28;19933;-67
2023/03/05 12:38:38;;;;;;;;;;;7.50;99.90;;;;;;4958107;28;19926;-67
2023/03/05 12:41:24;;;;;;;;;;;7.40;99.90;;;;;;4957870;28;20473;-68
2023/03/05 12:44:08;;;;;;;;;;;7.40;99.90;;;;;;4959344;28;20009;-69
2023/03/05 12:46:37;;;;;;;;;;;7.20;99.90;;;;;;4964328;28;20413;-68
2023/03/05 12:49:19;;;;;;;;;;;7.10;99.90;;;;;;4963757;28;20025;-68
2023/03/05 12:51:46;;;;;;;;;;;6.90;99.90;;;;;;4963670;28;20017;-68
2023/03/05 12:54:24;;;;;;;;;;;6.80;99.90;;;;;;4963374;28;19934;-69
2023/03/05 12:56:52;;;;;;;;;;;6.80;99.90;;;;;;4967716;28;19933;-69
2023/03/05 12:59:20;;;;;;;;;;;6.70;99.90;;;;;;4965107;28;19960;-68
2023/03/05 13:01:51;;;;;;;;;;;6.80;99.90;;;;;;4962721;28;19930;-68
2023/03/05 13:04:20;;;;;;;;;;;6.70;99.90;;;;;;4975335;28;20011;-67
2023/03/05 13:06:47;;;;;;;;;;;6.70;99.90;;;;;;4962204;28;19954;-67
2023/03/05 13:09:18;;;;;;;;;;;6.60;99.90;;;;;;4964934;28;20361;-68
2023/03/05 13:11:46;;;;;;;;;;;6.60;99.90;;;;;;4974731;28;19932;-67
2023/03/05 13:14:31;;;;;;;;;;;6.50;99.90;;;;;;4959203;28;19926;-67
2023/03/05 13:16:59;;;;;;;;;;;6.60;99.90;;;;;;4963434;28;20012;-68
2023/03/05 13:19:26;;;;;;;;;;;6.80;99.90;;;;;;4965564;28;20008;-67
2023/03/05 13:22:00;;;;;;;;;;;6.90;99.90;;;;;;4969511;28;19930;-67
2023/03/05 13:24:28;;;;;;;;;;;6.80;99.90;;;;;;4962385;28;20486;-67
2023/03/05 13:26:54;;;;;;;;;;;7.00;99.90;;;;;;4963733;28;19938;-67
2023/03/05 13:29:22;;;;;;;;;;;6.80;99.90;;;;;;4965576;28;19926;-68
2023/03/05 13:31:50;;;;;;;;;;;6.70;99.90;;;;;;4972366;28;19926;-67
2023/03/05 13:34:21;;;;;;;;;;;6.50;99.90;;;;;;4961423;28;19926;-67
2023/03/05 13:36:49;;;;;;;;;;;6.40;99.90;;;;;;4964237;28;20037;-67
2023/03/05 13:39:21;;;;;;;;;;;6.30;99.90;;;;;;4959287;28;20033;-66
2023/03/05 13:42:03;;;;;;;;;;;6.10;99.90;;;;;;4960529;28;19972;-67
2023/03/05 13:44:33;;;;;;;;;;;6.20;99.90;;;;;;4959935;28;20014;-67
2023/03/05 13:47:07;;;;;;;;;;;6.20;99.90;;;;;;4953249;28;19941;-67
2023/03/05 13:49:36;;;;;;;;;;;6.20;99.90;;;;;;4960854;28;19926;-66
2023/03/05 13:52:02;;;;;;;;;;;6.20;99.90;;;;;;4967757;28;19994;-67
2023/03/05 13:54:30;;;;;;;;;;;6.30;99.90;;;;;;4965086;28;20033;-72
2023/03/05 13:56:58;;;;;;;;;;;6.30;99.90;;;;;;4960942;28;19926;-66
2023/03/05 13:59:27;;;;;;;;;;;6.30;99.90;;;;;;4966013;28;19935;-67
2023/03/05 14:01:54;;;;;;;;;;;6.30;99.90;;;;;;4957462;28;19941;-67
2023/03/05 14:04:22;;;;;;;;;;;6.20;99.90;;;;;;4961215;28;19969;-67
2023/03/05 14:06:53;;;;;;;;;;;6.10;99.90;;;;;;4956281;28;19926;-67
2023/03/05 14:09:21;;;;;;;;;;;6.10;99.90;;;;;;4961185;28;19926;-67
2023/03/05 14:11:52;;;;;;;;;;;6.00;99.90;;;;;;4962088;28;19926;-67
2023/03/05 14:14:20;;;;;;;;;;;6.10;99.90;;;;;;4961808;28;20004;-67
2023/03/05 14:16:46;;;;;;;;;;;6.10;99.90;;;;;;4961984;28;19934;-67
2023/03/05 14:19:30;;;;;;;;;;;6.10;99.90;;;;;;4959866;28;20199;-68
2023/03/05 14:21:58;;;;;;;;;;;6.20;99.90;;;;;;4961173;28;20041;-67
2023/03/05 14:24:27;;;;;;;;;;;6.20;99.90;;;;;;4963776;28;19933;-68
2023/03/05 14:26:55;;;;;;;;;;;6.30;99.90;;;;;;4963912;28;19980;-67
2023/03/05 14:29:24;;;;;;;;;;;6.30;99.90;;;;;;4957703;28;19930;-67
2023/03/05 14:31:52;;;;;;;;;;;6.30;99.90;;;;;;4960908;28;19930;-67
2023/03/05 14:34:21;;;;;;;;;;;6.30;99.90;;;;;;4959371;28;19991;-66
2023/03/05 14:36:48;;;;;;;;;;;6.30;99.90;;;;;;4956903;28;19930;-70
2023/03/05 14:39:26;;;;;;;;;;;6.40;99.90;;;;;;4954667;28;19927;-69